createdAt,value
2023-03-03T00:01:54.958Z,19.27
2023-03-03T00:04:21.861Z,19.90
2023-03-03T00:06:48.765Z,19.58
2023-03-03T00:09:15.806Z,19.17
2023-03-03T00:11:42.724Z,19.80
2023-03-03T00:14:26.157Z,17.60
2023-03-03T00:16:53.050Z,17.63
2023-03-03T00:19:20.686Z,18.70
2023-03-03T00:21:50.622Z,17.95
2023-03-03T00:24:24.501Z,18.55
2023-03-03T00:26:57.090Z,18.52
2023-03-03T00:29:48.457Z,18.65
2023-03-03T00:32:15.307Z,20.00
2023-03-03T00:34:43.824Z,19.35
2023-03-03T00:37:34.750Z,17.52
2023-03-03T00:40:23.892Z,17.38
2023-03-03T00:42:57.448Z,17.98
2023-03-03T00:45:56.402Z,17.75
2023-03-03T00:48:36.825Z,17.23
2023-03-03T00:51:20.971Z,17.20
2023-03-03T00:53:48.398Z,14.15
2023-03-03T00:56:15.866Z,15.88
2023-03-03T00:58:44.269Z,16.65
2023-03-03T01:01:11.373Z,16.70
2023-03-03T01:03:44.675Z,15.85
2023-03-03T01:06:12.579Z,15.45
2023-03-03T01:08:40.032Z,15.48
2023-03-03T01:11:22.581Z,13.73
2023-03-03T01:13:52.749Z,15.45
2023-03-03T01:16:20.440Z,15.77
2023-03-03T01:18:47.470Z,16.27
2023-03-03T01:21:14.443Z,18.10
2023-03-03T01:23:41.733Z,15.73
2023-03-03T01:26:08.697Z,17.92
2023-03-03T01:28:35.816Z,16.17
2023-03-03T01:31:05.280Z,16.33
2023-03-03T01:33:34.273Z,15.07
2023-03-03T01:36:02.362Z,15.13
2023-03-03T01:38:29.686Z,12.70
2023-03-03T01:40:59.701Z,14.60
2023-03-03T01:43:31.225Z,14.30
2023-03-03T01:45:58.098Z,13.57
2023-03-03T01:48:39.956Z,13.18
2023-03-03T01:51:22.400Z,13.88
2023-03-03T01:53:58.502Z,13.98
2023-03-03T01:56:26.947Z,13.43
2023-03-03T01:59:02.329Z,16.02
2023-03-03T02:01:31.860Z,14.40
2023-03-03T02:03:59.791Z,14.43
2023-03-03T02:06:33.990Z,14.02
2023-03-03T02:09:31.733Z,15.73
2023-03-03T02:12:05.832Z,12.82
2023-03-03T02:14:32.784Z,12.73
2023-03-03T02:16:59.892Z,13.73
2023-03-03T02:20:01.605Z,13.48
2023-03-03T02:22:51.699Z,13.90
2023-03-03T02:25:31.642Z,14.02
2023-03-03T02:27:58.936Z,13.50
2023-03-03T02:30:26.888Z,14.02
2023-03-03T02:32:53.805Z,12.80
2023-03-03T02:35:39.665Z,15.55
2023-03-03T02:38:30.569Z,14.65
2023-03-03T02:41:10.027Z,14.57
2023-03-03T02:44:04.549Z,15.32
2023-03-03T02:46:39.987Z,14.35
2023-03-03T02:49:09.359Z,14.90
2023-03-03T02:51:37.732Z,16.80
2023-03-03T02:54:07.021Z,17.60
2023-03-03T02:56:34.689Z,15.48
2023-03-03T02:59:01.854Z,13.98
2023-03-03T03:01:36.934Z,16.48
2023-03-03T03:04:14.896Z,17.15
2023-03-03T03:06:45.352Z,15.65
2023-03-03T03:09:15.668Z,15.20
2023-03-03T03:11:43.868Z,17.77
2023-03-03T03:14:13.383Z,15.52
2023-03-03T03:16:41.904Z,17.00
2023-03-03T03:19:09.562Z,17.25
2023-03-03T03:21:37.747Z,17.40
2023-03-03T03:24:07.061Z,15.13
2023-03-03T03:26:36.456Z,16.13
2023-03-03T03:29:03.933Z,16.60
2023-03-03T03:31:32.462Z,15.85
2023-03-03T03:34:00.561Z,16.98
2023-03-03T03:36:29.247Z,17.42
2023-03-03T03:38:56.527Z,15.02
2023-03-03T03:41:23.465Z,15.35
2023-03-03T03:43:50.485Z,15.52
2023-03-03T03:46:17.649Z,17.02
2023-03-03T03:48:45.593Z,15.70
2023-03-03T03:51:14.221Z,16.67
2023-03-03T03:53:42.247Z,16.10
2023-03-03T03:56:09.251Z,15.98
2023-03-03T03:58:36.331Z,14.40
2023-03-03T04:01:08.980Z,15.18
2023-03-03T04:03:41.682Z,18.52
2023-03-03T04:06:12.191Z,17.75
2023-03-03T04:08:39.216Z,16.48
2023-03-03T04:11:06.148Z,17.27
2023-03-03T04:13:35.256Z,17.40
2023-03-03T04:16:05.212Z,17.35
2023-03-03T04:18:32.297Z,16.30
2023-03-03T04:20:59.931Z,19.30
2023-03-03T04:23:27.880Z,19.10
2023-03-03T04:25:55.298Z,16.63
2023-03-03T04:28:25.245Z,16.38
2023-03-03T04:30:52.889Z,15.00
2023-03-03T04:33:21.895Z,15.45
2023-03-03T04:35:49.941Z,14.10
2023-03-03T04:38:17.685Z,13.57
2023-03-03T04:40:45.824Z,12.38
2023-03-03T04:43:14.145Z,13.25
2023-03-03T04:45:41.665Z,13.32
2023-03-03T04:48:09.505Z,12.82
2023-03-03T04:50:37.181Z,14.20
2023-03-03T04:53:04.946Z,13.00
2023-03-03T04:55:31.881Z,11.23
2023-03-03T04:57:58.849Z,11.70
2023-03-03T05:00:26.177Z,13.05
2023-03-03T05:02:53.218Z,10.80
2023-03-03T05:05:20.526Z,11.88
2023-03-03T05:07:47.486Z,11.32
2023-03-03T05:10:14.872Z,11.05
2023-03-03T05:12:41.879Z,12.90
2023-03-03T05:15:09.360Z,11.93
2023-03-03T05:17:36.784Z,15.60
2023-03-03T05:20:08.571Z,15.50
2023-03-03T05:22:35.542Z,17.17
2023-03-03T05:25:02.530Z,17.10
2023-03-03T05:27:29.513Z,15.88
2023-03-03T05:29:56.773Z,16.77
2023-03-03T05:32:23.772Z,16.02
2023-03-03T05:34:52.444Z,15.85
2023-03-03T05:37:19.314Z,15.23
2023-03-03T05:39:46.314Z,16.48
2023-03-03T05:42:13.826Z,15.93
2023-03-03T05:44:40.836Z,16.02
2023-03-03T05:47:08.242Z,15.90
2023-03-03T05:49:35.750Z,17.50
2023-03-03T05:52:02.826Z,15.38
2023-03-03T05:54:29.765Z,15.10
2023-03-03T05:56:57.403Z,14.35
2023-03-03T05:59:24.902Z,15.23
2023-03-03T06:01:51.994Z,14.43
2023-03-03T06:04:19.138Z,13.73
2023-03-03T06:06:46.164Z,14.93
2023-03-03T06:09:13.319Z,14.25
2023-03-03T06:11:40.518Z,14.93
2023-03-03T06:14:07.598Z,12.90
2023-03-03T06:16:34.779Z,13.13
2023-03-03T06:19:01.918Z,12.77
2023-03-03T06:21:29.031Z,15.50
2023-03-03T06:23:56.127Z,13.48
2023-03-03T06:26:23.642Z,13.25
2023-03-03T06:28:53.987Z,14.10
2023-03-03T06:31:21.646Z,14.48
2023-03-03T06:33:48.568Z,15.13
2023-03-03T06:36:15.499Z,15.70
2023-03-03T06:38:42.524Z,15.77
2023-03-03T06:41:09.695Z,13.60
2023-03-03T06:43:37.338Z,12.93
2023-03-03T06:46:05.525Z,12.65
2023-03-03T06:48:33.496Z,13.65
2023-03-03T06:51:04.076Z,12.52
2023-03-03T06:53:33.252Z,14.50
2023-03-03T06:56:01.901Z,13.05
2023-03-03T06:58:29.598Z,13.80
2023-03-03T07:01:01.624Z,12.45
2023-03-03T07:03:34.637Z,14.70
2023-03-03T07:06:05.174Z,14.13
2023-03-03T07:08:33.339Z,14.57
2023-03-03T07:11:09.329Z,14.38
2023-03-03T07:13:44.110Z,13.85
2023-03-03T07:16:13.523Z,14.43
2023-03-03T07:18:53.217Z,14.65
2023-03-03T07:21:38.781Z,12.10
2023-03-03T07:24:31.474Z,15.10
2023-03-03T07:27:19.351Z,14.60
2023-03-03T07:29:49.760Z,13.38
2023-03-03T07:32:44.399Z,14.13
2023-03-03T07:35:38.855Z,15.23
2023-03-03T07:38:25.724Z,13.25
2023-03-03T07:40:56.512Z,15.93
2023-03-03T07:43:40.230Z,13.10
2023-03-03T07:46:10.534Z,13.75
2023-03-03T07:48:42.762Z,13.43
2023-03-03T07:51:41.947Z,12.60
2023-03-03T07:54:29.658Z,13.10
2023-03-03T07:57:11.957Z,11.70
2023-03-03T07:59:48.808Z,10.25
2023-03-03T08:02:42.682Z,9.10
2023-03-03T08:05:40.637Z,9.40
2023-03-03T08:08:10.580Z,8.63
2023-03-03T08:10:55.707Z,8.50
2023-03-03T08:13:28.429Z,9.07
2023-03-03T08:16:15.684Z,9.98
2023-03-03T08:18:49.978Z,8.20
2023-03-03T08:21:20.402Z,7.93
2023-03-03T08:23:51.874Z,9.30
2023-03-03T08:26:21.180Z,7.45
2023-03-03T08:28:48.274Z,7.93
2023-03-03T08:31:30.846Z,6.60
2023-03-03T08:34:05.272Z,7.25
2023-03-03T08:36:34.570Z,7.35
2023-03-03T08:39:03.112Z,6.32
2023-03-03T08:41:30.197Z,6.53
2023-03-03T08:43:57.249Z,6.65
2023-03-03T08:46:24.482Z,5.75
2023-03-03T08:48:51.462Z,5.70
2023-03-03T08:51:18.603Z,5.97
2023-03-03T08:53:45.482Z,7.05
2023-03-03T08:56:12.410Z,6.50
2023-03-03T08:58:49.903Z,6.10
2023-03-03T09:01:26.996Z,6.38
2023-03-03T09:03:54.078Z,6.00
2023-03-03T09:06:20.985Z,7.03
2023-03-03T09:08:48.156Z,6.28
2023-03-03T09:11:22.694Z,5.93
2023-03-03T09:13:53.405Z,6.38
2023-03-03T09:16:23.603Z,6.32
2023-03-03T09:18:50.909Z,6.03
2023-03-03T09:21:26.875Z,5.72
2023-03-03T09:23:59.524Z,6.10
2023-03-03T09:26:48.889Z,5.75
2023-03-03T09:29:15.726Z,5.90
2023-03-03T09:32:01.074Z,5.20
2023-03-03T09:34:42.485Z,5.38
2023-03-03T09:37:29.437Z,5.53
2023-03-03T09:39:57.935Z,5.97
2023-03-03T09:42:47.442Z,5.32
2023-03-03T09:45:43.711Z,5.25
2023-03-03T09:48:59.308Z,4.15
2023-03-03T09:52:12.973Z,4.10
2023-03-03T09:54:56.916Z,4.50
2023-03-03T09:57:39.757Z,4.30
2023-03-03T10:00:09.796Z,4.55
2023-03-03T10:02:57.985Z,5.22
2023-03-03T10:05:30.728Z,4.28
2023-03-03T10:08:54.770Z,4.30
2023-03-03T10:11:41.689Z,4.70
2023-03-03T10:15:12.925Z,3.85
2023-03-03T10:17:52.396Z,4.18
2023-03-03T10:20:51.140Z,4.07
2023-03-03T10:23:52.973Z,3.78
2023-03-03T10:26:45.141Z,3.40
2023-03-03T10:29:50.457Z,3.05
2023-03-03T10:32:54.738Z,3.95
2023-03-03T10:35:36.619Z,3.22
2023-03-03T10:38:17.389Z,3.50
2023-03-03T10:41:12.072Z,3.58
2023-03-03T10:44:25.996Z,3.20
2023-03-03T10:47:21.574Z,3.85
2023-03-03T10:50:07.841Z,4.28
2023-03-03T10:55:49.930Z,3.10
2023-03-03T10:59:07.525Z,3.38
2023-03-03T11:04:18.070Z,3.17
2023-03-03T11:07:05.992Z,3.40
2023-03-03T11:09:39.026Z,3.22
2023-03-03T11:12:23.961Z,3.30
2023-03-03T11:15:08.362Z,2.95
2023-03-03T11:17:56.331Z,3.67
2023-03-03T11:20:37.427Z,3.10
2023-03-03T11:23:38.234Z,3.40
2023-03-03T11:26:52.398Z,3.05
2023-03-03T11:29:30.559Z,2.70
2023-03-03T11:32:01.867Z,2.97
2023-03-03T11:35:09.209Z,3.05
2023-03-03T11:37:59.609Z,3.10
2023-03-03T11:40:49.042Z,3.10
2023-03-03T11:43:38.543Z,4.20
2023-03-03T11:46:22.608Z,4.10
2023-03-03T11:49:29.096Z,2.60
2023-03-03T11:52:25.774Z,3.25
2023-03-03T11:57:26.073Z,4.40
2023-03-03T12:00:30.703Z,2.90
2023-03-03T12:03:37.509Z,3.22
2023-03-03T12:06:32.164Z,2.72
2023-03-03T12:09:01.907Z,3.45
2023-03-03T12:11:54.249Z,2.70
2023-03-03T12:14:44.090Z,3.08
2023-03-03T12:17:50.729Z,2.42
2023-03-03T12:20:45.415Z,3.25
2023-03-03T12:23:57.842Z,2.42
2023-03-03T12:26:41.696Z,2.63
2023-03-03T12:29:38.487Z,2.63
2023-03-03T12:32:28.332Z,2.00
2023-03-03T12:35:24.276Z,2.28
2023-03-03T12:37:59.758Z,2.65
2023-03-03T12:40:33.828Z,2.28
2023-03-03T12:43:26.512Z,2.00
2023-03-03T12:46:28.502Z,1.90
2023-03-03T12:48:55.924Z,2.47
2023-03-03T12:51:48.720Z,2.28
2023-03-03T12:54:25.131Z,3.28
2023-03-03T12:57:14.045Z,2.33
2023-03-03T13:00:16.326Z,1.90
2023-03-03T13:03:02.213Z,2.00
2023-03-03T13:05:31.180Z,2.08
2023-03-03T13:08:40.076Z,1.88
2023-03-03T13:11:56.347Z,2.42
2023-03-03T13:14:44.158Z,1.33
2023-03-03T13:17:59.340Z,2.38
2023-03-03T13:20:50.872Z,1.90
2023-03-03T13:23:27.913Z,1.60
2023-03-03T13:26:07.859Z,1.42
2023-03-03T13:28:41.051Z,1.70
2023-03-03T13:31:32.347Z,1.50
2023-03-03T13:34:02.165Z,1.33
2023-03-03T13:37:06.749Z,1.63
2023-03-03T13:39:57.340Z,1.70
2023-03-03T13:42:39.395Z,1.08
2023-03-03T13:45:58.353Z,1.10
2023-03-03T13:49:02.963Z,1.40
2023-03-03T13:52:12.590Z,1.15
2023-03-03T13:54:55.772Z,1.10
2023-03-03T13:58:01.421Z,1.65
2023-03-03T14:01:19.818Z,1.00
2023-03-03T14:04:10.674Z,1.20
2023-03-03T14:06:41.065Z,1.05
2023-03-03T14:09:27.929Z,1.30
2023-03-03T14:12:18.014Z,1.20
2023-03-03T14:15:04.326Z,2.28
2023-03-03T14:17:55.617Z,2.35
2023-03-03T14:20:34.805Z,1.13
2023-03-03T14:23:14.882Z,2.08
2023-03-03T14:26:03.673Z,1.30
2023-03-03T14:28:49.801Z,1.20
2023-03-03T14:31:26.471Z,1.40
2023-03-03T14:34:11.425Z,0.98
2023-03-03T14:36:43.620Z,1.20
2023-03-03T14:39:35.107Z,1.20
2023-03-03T14:42:14.259Z,1.30
2023-03-03T14:45:04.789Z,1.48
2023-03-03T14:47:32.055Z,1.63
2023-03-03T14:50:03.713Z,1.30
2023-03-03T14:52:34.070Z,1.83
2023-03-03T14:55:06.003Z,1.00
2023-03-03T14:57:37.675Z,1.42
2023-03-03T15:00:14.758Z,1.20
2023-03-03T15:02:52.498Z,1.88
2023-03-03T15:05:31.907Z,1.38
2023-03-03T15:08:10.341Z,1.45
2023-03-03T15:10:45.870Z,1.48
2023-03-03T15:13:23.201Z,0.98
2023-03-03T15:15:59.520Z,1.40
2023-03-03T15:18:29.387Z,1.20
2023-03-03T15:21:05.816Z,0.85
2023-03-03T15:23:57.438Z,0.98
2023-03-03T15:26:59.234Z,1.00
2023-03-03T15:29:56.654Z,1.00
2023-03-03T15:33:11.486Z,1.15
2023-03-03T15:35:51.459Z,1.00
2023-03-03T15:38:46.306Z,1.30
2023-03-03T15:41:39.352Z,2.15
2023-03-03T15:44:37.231Z,1.30
2023-03-03T15:47:35.404Z,1.17
2023-03-03T15:50:33.159Z,1.48
2023-03-03T15:53:46.287Z,1.65
2023-03-03T15:56:36.127Z,1.40
2023-03-03T15:59:46.517Z,1.10
2023-03-03T16:02:24.614Z,1.27
2023-03-03T16:05:28.861Z,1.40
2023-03-03T16:08:17.818Z,1.10
2023-03-03T16:10:59.832Z,1.25
2023-03-03T16:13:49.202Z,1.10
2023-03-03T16:16:47.243Z,0.90
2023-03-03T16:19:26.401Z,1.00
2023-03-03T16:22:37.029Z,1.27
2023-03-03T16:25:26.772Z,1.00
2023-03-03T16:28:30.319Z,1.05
2023-03-03T16:31:48.893Z,1.15
2023-03-03T16:34:26.618Z,0.95
2023-03-03T16:37:07.367Z,0.95
2023-03-03T16:39:59.505Z,0.90
2023-03-03T16:42:32.563Z,0.90
2023-03-03T16:45:24.895Z,0.70
2023-03-03T16:47:58.581Z,0.60
2023-03-03T16:50:37.812Z,1.08
2023-03-03T16:53:29.282Z,1.38
2023-03-03T16:56:22.862Z,0.85
2023-03-03T16:59:28.500Z,0.95
2023-03-03T17:02:38.494Z,0.73
2023-03-03T17:05:25.537Z,0.90
2023-03-03T17:08:29.002Z,0.50
2023-03-03T17:11:12.416Z,0.85
2023-03-03T17:14:13.195Z,0.63
2023-03-03T17:16:56.871Z,1.10
2023-03-03T17:19:45.702Z,0.80
2023-03-03T17:22:46.261Z,1.27
2023-03-03T17:25:30.641Z,0.90
2023-03-03T17:28:22.715Z,1.67
2023-03-03T17:31:12.496Z,0.85
2023-03-03T17:34:00.557Z,1.40
2023-03-03T17:36:33.345Z,1.20
2023-03-03T17:39:50.022Z,1.00
2023-03-03T17:42:56.862Z,0.70
2023-03-03T17:45:25.924Z,0.80
2023-03-03T17:48:23.409Z,1.00
2023-03-03T17:50:59.175Z,0.68
2023-03-03T17:57:18.754Z,0.65
2023-03-03T18:00:14.813Z,1.00
2023-03-03T18:03:16.973Z,0.75
2023-03-03T18:06:11.715Z,0.90
2023-03-03T18:09:16.476Z,0.70
2023-03-03T18:12:06.260Z,0.75
2023-03-03T18:15:13.472Z,0.65
2023-03-03T18:18:26.632Z,1.00
2023-03-03T18:21:17.225Z,0.95
2023-03-03T18:23:46.476Z,1.42
2023-03-03T18:26:31.395Z,1.77
2023-03-03T18:29:22.404Z,1.13
2023-03-03T18:31:58.596Z,1.23
2023-03-03T18:34:40.069Z,1.10
2023-03-03T18:37:31.802Z,1.77
2023-03-03T18:40:04.697Z,2.10
2023-03-03T18:42:53.856Z,1.67
2023-03-03T18:45:21.456Z,2.83
2023-03-03T18:48:02.833Z,1.58
2023-03-03T18:50:43.297Z,1.67
2023-03-03T18:53:21.108Z,2.08
2023-03-03T18:55:51.599Z,2.15
2023-03-03T18:58:18.447Z,1.60
2023-03-03T19:00:55.021Z,1.58
2023-03-03T19:03:35.481Z,1.92
2023-03-03T19:06:04.907Z,2.20
2023-03-03T19:08:56.852Z,1.83
2023-03-03T19:11:38.897Z,1.65
2023-03-03T19:14:27.765Z,2.53
2023-03-03T19:17:00.359Z,2.85
2023-03-03T19:19:36.608Z,1.77
2023-03-03T19:22:30.832Z,1.67
2023-03-03T19:25:21.414Z,2.65
2023-03-03T19:28:27.768Z,2.28
2023-03-03T19:31:42.952Z,1.65
2023-03-03T19:34:53.503Z,2.22
2023-03-03T19:37:51.371Z,2.60
2023-03-03T19:40:48.968Z,1.52
2023-03-03T19:43:42.771Z,3.13
2023-03-03T19:46:46.940Z,1.63
2023-03-03T19:49:53.044Z,2.70
2023-03-03T19:52:52.403Z,3.03
2023-03-03T19:55:28.309Z,2.03
2023-03-03T19:58:18.392Z,1.77
2023-03-03T20:01:09.134Z,2.45
2023-03-03T20:04:31.066Z,2.33
2023-03-03T20:07:24.122Z,2.20
2023-03-03T20:10:27.874Z,2.15
2023-03-03T20:13:09.786Z,2.35
2023-03-03T20:15:50.256Z,2.55
2023-03-03T20:19:04.546Z,3.97
2023-03-03T20:21:38.130Z,2.42
2023-03-03T20:24:16.785Z,3.33
2023-03-03T20:27:06.771Z,2.00
2023-03-03T20:30:25.237Z,1.83
2023-03-03T20:33:19.940Z,3.75
2023-03-03T20:36:27.534Z,1.88
2023-03-03T20:39:09.223Z,2.78
2023-03-03T20:42:05.874Z,1.70
2023-03-03T20:47:50.617Z,1.95
2023-03-03T20:50:37.215Z,5.63
2023-03-03T20:53:22.377Z,2.03
2023-03-03T20:56:06.035Z,3.38
2023-03-03T20:59:02.582Z,3.60
2023-03-03T21:01:53.250Z,3.00
2023-03-03T21:04:30.136Z,5.65
2023-03-03T21:06:59.085Z,2.15
2023-03-03T21:09:39.468Z,3.10
2023-03-03T21:12:29.293Z,1.95
2023-03-03T21:15:08.824Z,3.45
2023-03-03T21:17:36.613Z,3.95
2023-03-03T21:20:28.558Z,2.63
2023-03-03T21:22:57.518Z,2.90
2023-03-03T21:25:44.848Z,2.65
2023-03-03T21:28:31.123Z,2.25
2023-03-03T21:33:50.657Z,3.28
2023-03-03T21:36:38.028Z,2.40
2023-03-03T21:39:38.382Z,3.08
2023-03-03T21:42:19.261Z,3.22
2023-03-03T21:44:51.312Z,3.28
2023-03-03T21:47:23.688Z,3.38
2023-03-03T21:49:52.265Z,3.75
2023-03-03T21:52:22.623Z,3.45
2023-03-03T21:54:51.744Z,2.67
2023-03-03T21:57:19.134Z,4.10
2023-03-03T21:59:46.363Z,4.30
2023-03-03T22:02:13.395Z,4.15
2023-03-03T22:04:41.176Z,3.75
2023-03-03T22:07:09.325Z,2.97
2023-03-03T22:09:36.969Z,1.90
2023-03-03T22:12:05.699Z,2.30
2023-03-03T22:14:32.882Z,3.33
2023-03-03T22:16:59.862Z,1.70
2023-03-03T22:19:27.066Z,3.25
2023-03-03T22:21:54.059Z,2.83
2023-03-03T22:24:21.204Z,2.85
2023-03-03T22:26:48.344Z,2.92
2023-03-03T22:29:17.023Z,2.63
2023-03-03T22:31:44.037Z,5.28
2023-03-03T22:34:11.424Z,3.15
2023-03-03T22:36:38.388Z,2.88
2023-03-03T22:39:05.324Z,2.90
2023-03-03T22:41:32.370Z,1.70
2023-03-03T22:43:59.313Z,1.95
2023-03-03T22:46:26.471Z,4.55
2023-03-03T22:48:54.040Z,1.80
2023-03-03T22:51:22.325Z,2.72
2023-03-03T22:53:49.548Z,2.50
2023-03-03T22:56:16.536Z,2.45
2023-03-03T22:58:43.578Z,1.73
2023-03-03T23:01:10.798Z,1.98
2023-03-03T23:03:37.904Z,2.55
2023-03-03T23:06:05.843Z,3.08
2023-03-03T23:08:32.767Z,2.42
2023-03-03T23:10:59.740Z,2.25
2023-03-03T23:13:27.347Z,2.05
2023-03-03T23:15:58.308Z,4.03
2023-03-03T23:18:26.555Z,3.35
2023-03-03T23:20:53.540Z,3.95
2023-03-03T23:23:21.413Z,2.60
2023-03-03T23:25:48.386Z,2.30
2023-03-03T23:28:15.822Z,1.77
2023-03-03T23:30:43.245Z,2.15
2023-03-03T23:33:10.319Z,1.92
2023-03-03T23:35:37.509Z,2.58
2023-03-03T23:38:04.568Z,3.03
2023-03-03T23:40:31.442Z,1.92
2023-03-03T23:42:58.478Z,2.35
2023-03-03T23:45:25.373Z,3.38
2023-03-03T23:47:52.327Z,1.83
2023-03-03T23:50:19.333Z,2.60
2023-03-03T23:52:46.363Z,1.95
2023-03-03T23:55:13.335Z,3.17
2023-03-03T23:57:40.509Z,3.25
